Time;durP1;ratioP1;P1;durP2;ratioP2;P2;SDS_P1;SDS_P2;PMS_P1;PMS_P2;Temp;Humidity;BMP_temperature;BMP_pressure;BME280_temperature;BME280_humidity;BME280_pressure;Samples;Min_cycle;Max_cycle;Signal;HPM_P1;HPM_P2
2022/09/23 00:01:03;;;;;;;7.65;4.38;;;9.80;99.90;;;;;;4985634;28;20110;-74
2022/09/23 00:03:32;;;;;;;8.57;4.32;;;9.80;99.90;;;;;;4974289;28;20054;-74
2022/09/23 00:06:04;;;;;;;5.70;4.10;;;9.70;99.90;;;;;;4963322;28;20551;-75
2022/09/23 00:08:30;;;;;;;8.80;4.30;;;9.70;99.90;;;;;;4966614;28;20480;-75
2022/09/23 00:10:56;;;;;;;8.02;4.85;;;9.70;99.90;;;;;;4971445;28;20029;-75
2022/09/23 00:13:23;;;;;;;9.80;5.00;;;9.70;99.90;;;;;;4967502;28;20098;-75
2022/09/23 00:15:52;;;;;;;7.35;4.70;;;9.60;99.90;;;;;;4972204;28;20027;-75
2022/09/23 00:18:19;;;;;;;8.23;4.43;;;9.60;99.90;;;;;;4963650;28;20472;-75
2022/09/23 00:20:54;;;;;;;8.43;5.03;;;9.60;99.90;;;;;;4968592;28;20500;-75
2022/09/23 00:23:23;;;;;;;7.47;4.78;;;9.60;99.90;;;;;;4969496;28;20034;-75
2022/09/23 00:25:56;;;;;;;6.85;4.47;;;9.50;99.90;;;;;;4973358;28;20387;-75
2022/09/23 00:28:29;;;;;;;8.43;4.43;;;9.50;99.90;;;;;;4969260;28;20035;-75
2022/09/23 00:30:55;;;;;;;11.57;6.00;;;9.50;99.90;;;;;;4973835;28;20099;-74
2022/09/23 00:33:23;;;;;;;10.75;6.00;;;9.50;99.90;;;;;;4969381;28;20367;-75
2022/09/23 00:35:49;;;;;;;8.43;4.50;;;9.40;99.90;;;;;;4963746;28;20023;-76
2022/09/23 00:38:20;;;;;;;7.20;4.75;;;9.40;99.90;;;;;;4970729;28;20073;-75
2022/09/23 00:40:59;;;;;;;7.20;4.32;;;9.40;99.90;;;;;;4966991;28;20081;-76
2022/09/23 00:43:42;;;;;;;6.75;3.97;;;9.40;99.90;;;;;;4968481;28;20035;-75
2022/09/23 00:46:10;;;;;;;7.75;4.10;;;9.30;99.90;;;;;;4967166;28;20468;-75
2022/09/23 00:48:39;;;;;;;7.65;5.00;;;9.30;99.90;;;;;;4964805;28;20035;-74
2022/09/23 00:51:23;;;;;;;8.77;4.55;;;9.30;99.90;;;;;;4967850;28;20058;-75
2022/09/23 00:53:59;;;;;;;5.28;3.58;;;9.20;99.90;;;;;;4966137;28;20032;-75
2022/09/23 00:56:32;;;;;;;5.45;3.58;;;9.20;99.90;;;;;;4969509;28;20070;-75
2022/09/23 00:58:59;;;;;;;7.13;4.20;;;9.10;99.90;;;;;;4962528;28;20023;-75
2022/09/23 01:01:28;;;;;;;7.43;4.45;;;9.10;99.90;;;;;;4966283;28;20773;-75
2022/09/23 01:04:04;;;;;;;7.22;4.85;;;9.00;99.90;;;;;;4977901;28;20424;-75
2022/09/23 01:06:30;;;;;;;6.22;4.70;;;9.00;99.90;;;;;;4968432;28;20166;-75
2022/09/23 01:08:58;;;;;;;6.97;4.68;;;9.00;99.90;;;;;;4968189;28;20560;-75
2022/09/23 01:11:56;;;;;;;5.13;3.80;;;8.90;99.90;;;;;;4979081;28;20559;-75
2022/09/23 01:14:58;;;;;;;7.13;4.72;;;8.90;99.90;;;;;;4966484;28;20038;-75
2022/09/23 01:17:42;;;;;;;7.38;4.50;;;8.80;99.90;;;;;;4971397;28;20388;-75
2022/09/23 01:20:26;;;;;;;;;;;8.80;99.90;;;;;;4965315;28;20035;-75
2022/09/23 01:23:29;;;;;;;8.13;4.63;;;8.70;99.90;;;;;;4970201;28;19968;-75
2022/09/23 01:26:32;;;;;;;7.28;4.57;;;8.60;99.90;;;;;;4972036;28;20451;-75
2022/09/23 01:29:24;;;;;;;7.60;4.60;;;8.60;99.90;;;;;;4969131;28;20046;-74
2022/09/23 01:32:07;;;;;;;6.65;4.50;;;8.60;99.90;;;;;;4968150;28;20476;-75
2022/09/23 01:34:33;;;;;;;10.30;5.30;;;8.50;99.90;;;;;;4975902;28;20399;-74
2022/09/23 01:37:23;;;;;;;8.63;4.88;;;8.40;99.90;;;;;;4964518;28;20035;-75
2022/09/23 01:39:49;;;;;;;9.15;5.63;;;8.40;99.90;;;;;;4966671;28;20054;-75
2022/09/23 01:43:01;;;;;;;7.35;5.03;;;8.40;99.90;;;;;;4967154;28;20081;-75
2022/09/23 01:45:46;;;;;;;9.55;4.47;;;8.30;99.90;;;;;;4970313;28;20064;-75
2022/09/23 01:48:49;;;;;;;5.40;4.15;;;8.30;99.90;;;;;;4971624;28;20054;-75
2022/09/23 01:51:31;;;;;;;8.80;4.75;;;8.20;99.90;;;;;;4970227;28;20050;-74
2022/09/23 01:54:41;;;;;;;7.30;4.60;;;8.20;99.90;;;;;;4961803;28;20023;-74
2022/09/23 01:57:23;;;;;;;10.00;4.75;;;8.20;99.90;;;;;;4974885;28;20038;-75
2022/09/23 02:00:03;;;;;;;8.23;4.65;;;8.10;99.90;;;;;;4973096;28;20573;-75
2022/09/23 02:02:36;;;;;;;7.95;4.78;;;8.10;99.90;;;;;;4986816;28;20492;-73
2022/09/23 02:05:25;;;;;;;9.95;4.95;;;8.10;99.90;;;;;;4959821;28;20448;-74
2022/09/23 02:07:59;;;;;;;6.07;4.25;;;8.10;99.90;;;;;;4969125;28;20027;-74
2022/09/23 02:10:46;;;;;;;7.68;4.20;;;8.10;99.90;;;;;;4972258;28;20023;-74
2022/09/23 02:13:24;;;;;;;6.72;4.30;;;8.00;99.90;;;;;;4971202;28;20023;-74
2022/09/23 02:15:54;;;;;;;8.65;4.68;;;8.00;99.90;;;;;;4970624;28;20031;-74
2022/09/23 02:18:28;;;;;;;8.63;4.35;;;7.90;99.90;;;;;;4971235;28;20058;-74
2022/09/23 02:21:05;;;;;;;8.10;4.00;;;7.90;99.90;;;;;;4965293;28;20035;-74
2022/09/23 02:23:38;;;;;;;7.60;4.20;;;7.90;99.90;;;;;;4966325;28;20619;-74
2022/09/23 02:26:22;;;;;;;12.20;4.85;;;7.90;99.90;;;;;;4966961;28;20036;-74
2022/09/23 02:29:15;;;;;;;7.72;4.32;;;7.90;99.90;;;;;;4963098;28;20024;-74
2022/09/23 02:32:16;;;;;;;6.53;4.00;;;7.90;99.90;;;;;;4962412;28;20421;-74
2022/09/23 02:35:01;;;;;;;7.05;3.92;;;7.90;99.90;;;;;;4974023;28;20554;-74
2022/09/23 02:37:26;;;;;;;;;;;7.80;99.90;;;;;;4965064;28;20400;-74
2022/09/23 02:40:11;;;;;;;7.10;4.03;;;7.80;99.90;;;;;;4962078;28;19910;-74
2022/09/23 02:43:03;;;;;;;5.38;3.92;;;7.80;99.90;;;;;;4960754;28;20030;-74
2022/09/23 02:45:29;;;;;;;6.03;3.25;;;7.80;99.90;;;;;;4965419;28;20496;-74
2022/09/23 02:48:11;;;;;;;5.90;3.30;;;7.70;99.90;;;;;;4971222;28;20030;-74
2022/09/23 02:50:46;;;;;;;7.10;3.63;;;7.70;99.90;;;;;;4969632;28;20027;-74
2022/09/23 02:53:18;;;;;;;6.15;3.85;;;7.70;99.90;;;;;;4962739;28;20039;-74
2022/09/23 02:55:44;;;;;;;6.88;3.78;;;7.70;99.90;;;;;;4970070;28;20035;-74
2022/09/23 02:58:28;;;;;;;7.82;3.97;;;7.60;99.90;;;;;;4966775;28;20145;-74
2022/09/23 03:01:01;;;;;;;;;;;7.60;99.90;;;;;;4966542;28;20080;-74
2022/09/23 03:03:32;;;;;;;6.57;3.63;;;7.50;99.90;;;;;;4966725;28;19910;-74
2022/09/23 03:06:01;;;;;;;4.63;3.50;;;7.50;99.90;;;;;;4966896;28;20031;-74
2022/09/23 03:09:01;;;;;;;6.25;3.78;;;7.50;99.90;;;;;;4974940;28;20049;-74
2022/09/23 03:11:39;;;;;;;5.80;4.03;;;7.40;99.90;;;;;;4960488;28;20043;-74
2022/09/23 03:14:16;;;;;;;6.75;4.60;;;7.40;99.90;;;;;;4963802;28;20043;-73
2022/09/23 03:17:02;;;;;;;5.55;3.90;;;7.40;99.90;;;;;;4964943;28;20023;-73
2022/09/23 03:19:42;;;;;;;6.57;3.92;;;7.30;99.90;;;;;;4964086;28;20054;-74
2022/09/23 03:22:12;;;;;;;5.47;3.80;;;7.30;99.90;;;;;;4966850;28;20368;-74
2022/09/23 03:24:43;;;;;;;7.13;3.97;;;7.20;99.90;;;;;;4966254;28;20574;-74
2022/09/23 03:27:15;;;;;;;6.07;4.07;;;7.20;99.90;;;;;;4967789;28;20032;-73
2022/09/23 03:29:46;;;;;;;5.97;4.20;;;7.20;99.90;;;;;;4966075;28;20022;-73
2022/09/23 03:32:21;;;;;;;6.57;3.97;;;7.20;99.90;;;;;;4967360;28;20376;-74
2022/09/23 03:34:51;;;;;;;4.90;3.78;;;7.10;99.90;;;;;;4969058;28;20082;-74
2022/09/23 03:37:34;;;;;;;5.95;3.95;;;7.10;99.90;;;;;;4966698;28;20192;-74
2022/09/23 03:40:40;;;;;;;7.88;4.70;;;7.10;99.90;;;;;;4973665;28;20027;-74
2022/09/23 03:43:18;;;;;;;5.72;4.53;;;7.10;99.90;;;;;;4974419;28;20038;-73
2022/09/23 03:45:56;;;;;;;10.43;4.13;;;7.10;99.90;;;;;;4972176;28;20033;-74
2022/09/23 03:48:27;;;;;;;4.68;3.50;;;7.00;99.90;;;;;;4969843;28;20034;-73
2022/09/23 03:50:53;;;;;;;6.35;4.18;;;7.00;99.90;;;;;;4960467;28;20106;-73
2022/09/23 03:53:20;;;;;;;5.13;3.40;;;7.00;99.90;;;;;;4993088;23;20065;-73
2022/09/23 03:55:51;;;;;;;7.50;4.18;;;7.00;99.90;;;;;;4986361;28;20026;-73
2022/09/23 03:58:17;;;;;;;6.72;3.83;;;6.90;99.90;;;;;;4987106;28;20101;-74
2022/09/23 04:00:48;;;;;;;6.53;4.32;;;6.90;99.90;;;;;;4982451;28;20058;-73
2022/09/23 04:03:17;;;;;;;4.70;3.78;;;6.90;99.90;;;;;;4989600;28;20050;-73
2022/09/23 04:05:44;;;;;;;8.90;4.57;;;6.90;99.90;;;;;;4986307;28;20026;-73
2022/09/23 04:08:09;;;;;;;5.97;3.85;;;6.90;99.90;;;;;;4984323;28;20109;-72
2022/09/23 04:10:39;;;;;;;7.47;3.90;;;6.80;99.90;;;;;;4987394;28;20089;-72
2022/09/23 04:13:11;;;;;;;7.93;4.03;;;6.80;99.90;;;;;;4988257;28;20037;-72
2022/09/23 04:15:37;;;;;;;7.07;4.93;;;6.80;99.90;;;;;;4986745;28;20026;-72
2022/09/23 04:18:02;;;;;;;7.60;4.05;;;6.70;99.90;;;;;;5002829;28;20092;-73
2022/09/23 04:20:38;;;;;;;11.00;5.03;;;6.70;99.90;;;;;;4988212;28;20031;-73
2022/09/23 04:23:04;;;;;;;6.47;4.45;;;6.70;99.90;;;;;;4986625;28;20158;-73
2022/09/23 04:25:30;;;;;;;7.45;3.90;;;6.70;99.90;;;;;;4987191;28;20109;-72
2022/09/23 04:27:59;;;;;;;7.57;4.40;;;6.70;99.90;;;;;;4985365;28;20022;-72
2022/09/23 04:30:30;;;;;;;5.78;4.00;;;6.70;99.90;;;;;;4987990;28;20113;-74
2022/09/23 04:32:56;;;;;;;8.35;4.63;;;6.70;99.90;;;;;;4985622;28;20117;-74
2022/09/23 04:35:21;;;;;;;7.88;4.45;;;6.70;99.90;;;;;;4985254;28;20160;-72
2022/09/23 04:37:47;;;;;;;7.57;4.03;;;6.70;99.90;;;;;;4990321;28;20030;-71
2022/09/23 04:40:16;;;;;;;7.85;4.68;;;6.70;99.90;;;;;;4989670;28;20066;-70
2022/09/23 04:42:41;;;;;;;7.50;4.05;;;6.70;99.90;;;;;;4990866;28;21151;-70
2022/09/23 04:45:16;;;;;;;7.53;4.25;;;6.70;99.90;;;;;;4989183;28;20038;-70
2022/09/23 04:47:42;;;;;;;7.45;4.43;;;6.70;99.90;;;;;;4990207;28;20030;-70
2022/09/23 04:50:19;;;;;;;7.22;4.00;;;6.80;99.90;;;;;;5003336;28;20459;-69
2022/09/23 04:52:48;;;;;;;6.70;3.92;;;6.80;99.90;;;;;;4987869;28;20026;-70
2022/09/23 04:55:31;;;;;;;7.20;4.40;;;6.80;99.90;;;;;;4987677;28;20050;-73
2022/09/23 04:57:57;;;;;;;8.52;4.97;;;6.80;99.90;;;;;;4979566;28;20026;-69
2022/09/23 05:00:23;;;;;;;10.63;4.95;;;6.80;99.90;;;;;;4985204;28;20046;-74
2022/09/23 05:02:52;;;;;;;9.52;5.18;;;6.80;99.90;;;;;;4984138;28;20029;-74
2022/09/23 05:05:23;;;;;;;9.07;5.97;;;6.80;99.90;;;;;;4985927;28;20439;-73
2022/09/23 05:07:50;;;;;;;9.95;4.88;;;6.80;99.90;;;;;;4982824;28;20076;-75
2022/09/23 05:10:24;;;;;;;7.88;3.78;;;6.80;99.90;;;;;;5001437;28;20033;-75
2022/09/23 05:12:53;;;;;;;7.90;4.57;;;6.90;99.90;;;;;;4985687;28;20028;-75
2022/09/23 05:15:20;;;;;;;8.50;4.75;;;6.90;99.90;;;;;;4983677;28;20038;-74
2022/09/23 05:17:48;;;;;;;7.78;4.60;;;6.80;99.90;;;;;;4985021;28;20114;-74
2022/09/23 05:20:18;;;;;;;8.70;4.55;;;6.80;99.90;;;;;;4984100;28;20128;-74
2022/09/23 05:22:46;;;;;;;8.43;5.10;;;6.80;99.90;;;;;;4986196;28;20053;-74
2022/09/23 05:25:24;;;;;;;6.93;3.75;;;6.80;99.90;;;;;;4985676;28;20038;-75
2022/09/23 05:27:49;;;;;;;9.25;4.00;;;6.80;99.90;;;;;;4985253;28;20023;-75
2022/09/23 05:30:15;;;;;;;5.47;3.88;;;6.70;99.90;;;;;;4984926;28;20395;-76
2022/09/23 05:32:41;;;;;;;8.73;4.18;;;6.70;99.90;;;;;;5004686;28;20034;-74
2022/09/23 05:35:07;;;;;;;6.18;3.88;;;6.70;99.90;;;;;;4986939;28;20125;-75
2022/09/23 05:37:33;;;;;;;7.40;4.03;;;6.70;99.90;;;;;;4979529;28;20125;-74
2022/09/23 05:39:59;;;;;;;10.38;5.00;;;6.70;99.90;;;;;;4985861;28;20030;-74
2022/09/23 05:42:28;;;;;;;6.60;4.18;;;6.70;99.90;;;;;;4984783;28;20026;-74
2022/09/23 05:44:59;;;;;;;6.30;4.05;;;6.70;99.90;;;;;;5002416;28;20451;-74
2022/09/23 05:47:25;;;;;;;7.80;4.97;;;6.80;99.90;;;;;;5001099;28;20463;-74
2022/09/23 05:49:50;;;;;;;8.38;4.68;;;6.80;99.90;;;;;;4983729;28;20185;-73
2022/09/23 05:52:19;;;;;;;8.52;4.40;;;6.90;99.90;;;;;;4985152;28;20595;-73
2022/09/23 05:54:45;;;;;;;5.65;4.82;;;6.90;99.90;;;;;;4983479;28;20482;-73
2022/09/23 05:57:10;;;;;;;9.50;5.07;;;7.00;99.90;;;;;;5003832;28;20038;-67
2022/09/23 05:59:48;;;;;;;8.77;4.68;;;7.00;99.90;;;;;;4999690;28;20034;-71
2022/09/23 06:02:20;;;;;;;6.55;4.47;;;7.10;99.90;;;;;;4985423;28;20586;-71
2022/09/23 06:04:46;;;;;;;9.90;5.20;;;7.10;99.90;;;;;;4987133;28;20030;-71
2022/09/23 06:07:18;;;;;;;11.85;6.15;;;7.20;99.90;;;;;;5001052;28;20096;-71
2022/09/23 06:09:47;;;;;;;9.60;6.05;;;7.20;99.90;;;;;;4982446;28;20502;-71
2022/09/23 06:12:15;;;;;;;10.55;6.22;;;7.20;99.90;;;;;;4985099;28;20030;-72
2022/09/23 06:14:44;;;;;;;10.95;5.57;;;7.30;99.90;;;;;;4995975;28;20133;-70
2022/09/23 06:17:13;;;;;;;10.70;5.32;;;7.40;99.90;;;;;;4984692;28;20113;-71
2022/09/23 06:19:47;;;;;;;11.00;5.57;;;7.50;99.90;;;;;;5004686;28;20081;-71
2022/09/23 06:22:15;;;;;;;11.80;5.25;;;7.50;99.90;;;;;;4985950;28;20032;-72
2022/09/23 06:24:41;;;;;;;9.93;5.10;;;7.50;99.90;;;;;;4985147;28;20484;-72
2022/09/23 06:27:08;;;;;;;8.05;4.82;;;7.60;99.90;;;;;;4983789;28;20105;-72
2022/09/23 06:29:35;;;;;;;8.20;5.03;;;7.60;99.90;;;;;;4983953;28;20471;-72
2022/09/23 06:32:01;;;;;;;8.23;5.30;;;7.70;99.90;;;;;;4988000;28;20387;-72
2022/09/23 06:34:26;;;;;;;8.98;5.35;;;7.70;99.90;;;;;;4977671;28;20030;-73
2022/09/23 06:36:58;;;;;;;15.40;6.85;;;7.80;99.90;;;;;;4988344;28;20100;-73
2022/09/23 06:39:24;;;;;;;8.73;5.18;;;7.80;99.90;;;;;;4984752;28;21272;-72
2022/09/23 06:41:49;;;;;;;19.60;5.53;;;7.90;99.90;;;;;;4990583;28;20026;-72
2022/09/23 06:44:15;;;;;;;10.13;5.18;;;7.90;99.90;;;;;;4986270;28;20427;-72
2022/09/23 06:46:47;;;;;;;13.27;5.63;;;8.00;99.90;;;;;;4989046;28;20019;-72
2022/09/23 06:49:16;;;;;;;9.95;4.45;;;8.00;99.90;;;;;;4983564;28;20483;-71
2022/09/23 06:51:57;;;;;;;12.23;5.18;;;8.10;99.90;;;;;;4981744;28;20034;-71
2022/09/23 06:54:29;;;;;;;13.57;5.20;;;8.10;99.90;;;;;;4983559;28;20038;-71
2022/09/23 06:56:58;;;;;;;7.85;4.20;;;8.20;99.90;;;;;;4984129;28;20096;-71
2022/09/23 06:59:24;;;;;;;11.73;4.88;;;8.20;99.90;;;;;;4986113;28;20127;-71
2022/09/23 07:01:49;;;;;;;12.82;5.05;;;8.20;99.90;;;;;;4981935;28;20027;-71
2022/09/23 07:04:18;;;;;;;6.70;4.82;;;8.20;99.90;;;;;;4996819;28;20153;-71
2022/09/23 07:06:51;;;;;;;10.32;5.47;;;8.30;99.90;;;;;;4989020;28;20062;-72
2022/09/23 07:09:17;;;;;;;16.45;5.72;;;8.30;99.90;;;;;;4986783;28;20018;-72
2022/09/23 07:11:46;;;;;;;9.20;5.78;;;8.30;99.90;;;;;;4988483;28;20049;-72
2022/09/23 07:14:17;;;;;;;9.18;5.45;;;8.40;99.90;;;;;;4990178;28;20221;-71
2022/09/23 07:16:52;;;;;;;10.55;5.88;;;8.50;99.90;;;;;;4988443;28;20407;-73
2022/09/23 07:19:18;;;;;;;7.57;5.20;;;8.60;99.90;;;;;;4990231;28;20242;-71
2022/09/23 07:21:49;;;;;;;11.18;5.53;;;8.70;99.90;;;;;;5004912;28;20526;-72
2022/09/23 07:24:24;;;;;;;12.30;6.15;;;8.80;99.90;;;;;;4990174;28;20097;-71
2022/09/23 07:26:59;;;;;;;8.57;5.15;;;8.90;99.90;;;;;;4990227;28;20483;-71
2022/09/23 07:29:33;;;;;;;11.73;6.00;;;9.00;99.90;;;;;;5007033;28;20026;-72
2022/09/23 07:31:59;;;;;;;12.05;5.95;;;9.10;99.90;;;;;;4990325;28;20042;-71
2022/09/23 07:34:25;;;;;;;14.43;6.63;;;9.20;99.90;;;;;;4990050;28;20709;-72
2022/09/23 07:36:53;;;;;;;14.77;7.13;;;9.30;99.90;;;;;;4988218;28;20080;-72
2022/09/23 07:39:19;;;;;;;15.27;7.30;;;9.40;99.90;;;;;;5005386;28;20022;-72
2022/09/23 07:41:48;;;;;;;15.07;7.13;;;9.50;99.90;;;;;;4989743;28;20081;-72
2022/09/23 07:44:26;;;;;;;15.80;7.47;;;9.60;99.90;;;;;;4991290;28;20026;-72
2022/09/23 07:46:51;;;;;;;14.80;6.72;;;9.80;99.90;;;;;;4986848;28;20483;-72
2022/09/23 07:49:19;;;;;;;13.40;6.53;;;9.90;99.90;;;;;;4989227;28;20487;-72
2022/09/23 07:51:48;;;;;;;10.50;6.13;;;10.10;99.90;;;;;;4986239;28;20022;-72
2022/09/23 07:54:17;;;;;;;12.38;5.65;;;10.20;99.90;;;;;;4989957;28;20038;-72
2022/09/23 07:56:44;;;;;;;14.02;6.13;;;10.30;99.90;;;;;;4992193;28;20030;-72
2022/09/23 07:59:17;;;;;;;11.45;6.43;;;10.30;99.90;;;;;;4991854;28;20061;-72
2022/09/23 08:01:47;;;;;;;8.85;5.53;;;10.40;99.90;;;;;;4989792;28;20026;-72
2022/09/23 08:04:45;;;;;;;11.18;5.90;;;10.50;99.90;;;;;;4989919;28;20030;-72
2022/09/23 08:07:21;;;;;;;10.20;5.45;;;10.60;99.90;;;;;;4982907;28;20058;-72
2022/09/23 08:09:55;;;;;;;7.38;5.53;;;10.70;99.90;;;;;;4984602;28;20499;-72
2022/09/23 08:12:28;;;;;;;18.50;9.90;;;10.70;99.90;;;;;;4987749;28;20027;-72
2022/09/23 08:14:58;;;;;;;19.40;10.68;;;10.80;99.90;;;;;;4989543;28;20125;-72
2022/09/23 08:17:24;;;;;;;15.20;7.38;;;10.90;99.90;;;;;;4986913;28;20049;-72
2022/09/23 08:19:52;;;;;;;14.93;6.97;;;10.90;99.90;;;;;;5000760;28;20065;-72
2022/09/23 08:22:18;;;;;;;14.52;5.93;;;11.00;99.90;;;;;;4990347;28;20345;-73
2022/09/23 08:24:59;;;;;;;12.52;6.72;;;11.00;99.90;;;;;;5004016;28;20027;-72
2022/09/23 08:27:28;;;;;;;10.45;6.25;;;11.10;99.90;;;;;;4987694;28;20042;-72
2022/09/23 08:30:02;;;;;;;20.75;6.53;;;11.10;99.90;;;;;;4985354;28;20037;-73
2022/09/23 08:32:28;;;;;;;9.93;6.25;;;11.20;99.90;;;;;;4991257;28;20029;-72
2022/09/23 08:34:54;;;;;;;11.63;6.50;;;11.20;99.90;;;;;;4987439;28;20034;-72
2022/09/23 08:37:19;;;;;;;17.20;7.40;;;11.30;99.90;;;;;;4989410;28;20525;-73
2022/09/23 08:39:48;;;;;;;15.35;6.50;;;11.30;99.90;;;;;;4990534;28;20027;-73
2022/09/23 08:42:28;;;;;;;10.75;6.75;;;11.40;99.90;;;;;;4985269;28;20046;-73
2022/09/23 08:45:03;;;;;;;13.52;6.93;;;11.50;99.90;;;;;;4986860;28;20023;-73
2022/09/23 08:48:00;;;;;;;11.07;6.13;;;11.60;99.90;;;;;;4989461;28;20262;-73
2022/09/23 08:50:38;;;;;;;12.15;6.13;;;11.70;99.90;;;;;;4993809;28;20557;-74
2022/09/23 08:53:28;;;;;;;15.85;6.88;;;11.80;99.90;;;;;;4986089;28;20037;-75
2022/09/23 08:56:11;;;;;;;12.07;5.93;;;11.80;99.90;;;;;;4989224;28;20372;-75
2022/09/23 08:59:21;;;;;;;10.65;5.55;;;11.90;99.90;;;;;;4987556;28;20038;-74
2022/09/23 09:02:09;;;;;;;10.02;5.63;;;12.00;99.90;;;;;;4976266;28;20629;-75
2022/09/23 09:04:35;;;;;;;13.13;5.55;;;12.00;99.90;;;;;;4985539;28;20454;-74
2022/09/23 09:07:12;;;;;;;8.27;5.35;;;12.00;99.90;;;;;;4986775;28;20105;-74
2022/09/23 09:09:53;;;;;;;7.63;5.45;;;12.00;99.90;;;;;;4988301;28;20034;-74
2022/09/23 09:12:23;;;;;;;9.38;5.80;;;12.10;99.90;;;;;;5000763;28;20042;-75
2022/09/23 09:14:59;;;;;;;11.45;6.25;;;12.00;99.90;;;;;;5004278;28;20029;-75
2022/09/23 09:17:35;;;;;;;12.25;7.75;;;12.10;99.90;;;;;;4987951;28;20030;-74
2022/09/23 09:20:22;;;;;;;14.25;7.05;;;12.20;99.90;;;;;;4989259;28;20061;-73
2022/09/23 09:23:14;;;;;;;17.90;8.77;;;12.30;99.90;;;;;;5006231;28;20506;-74
2022/09/23 09:25:59;;;;;;;13.43;7.00;;;12.40;99.90;;;;;;5006099;28;20517;-74
2022/09/23 09:28:34;;;;;;;9.43;5.88;;;12.50;99.90;;;;;;5000642;28;20391;-74
2022/09/23 09:31:04;;;;;;;9.50;5.63;;;12.50;99.90;;;;;;5001763;28;20450;-73
2022/09/23 09:34:04;;;;;;;10.05;5.97;;;12.70;99.90;;;;;;4983254;28;20037;-73
2022/09/23 09:36:37;;;;;;;10.43;6.25;;;12.80;99.90;;;;;;4985449;28;20498;-75
2022/09/23 09:39:14;;;;;;;9.60;5.80;;;12.80;99.90;;;;;;5002418;28;20099;-75
2022/09/23 09:41:44;;;;;;;10.68;6.40;;;12.90;99.90;;;;;;4986177;28;20161;-75
2022/09/23 09:44:48;;;;;;;10.70;6.22;;;13.00;99.90;;;;;;4986054;28;20030;-74
2022/09/23 09:47:39;;;;;;;7.75;5.65;;;13.10;99.90;;;;;;4986618;28;20026;-75
2022/09/23 09:50:07;;;;;;;9.90;5.95;;;13.20;99.90;;;;;;4984729;28;20076;-74
2022/09/23 09:52:42;;;;;;;8.05;6.10;;;13.30;99.90;;;;;;5002446;22;20088;-77
2022/09/23 09:55:23;;;;;;;10.73;6.50;;;13.40;99.90;;;;;;4994314;28;20034;-75
2022/09/23 09:58:04;;;;;;;11.05;6.70;;;13.40;99.90;;;;;;5007619;28;20029;-74
2022/09/23 10:00:29;;;;;;;8.52;6.07;;;13.50;99.90;;;;;;4991661;28;20034;-74
2022/09/23 10:03:12;;;;;;;11.13;6.05;;;13.60;99.90;;;;;;4992813;28;20057;-75
2022/09/23 10:05:51;;;;;;;8.98;6.15;;;13.60;99.90;;;;;;4965620;28;20054;-74
2022/09/23 10:08:35;;;;;;;13.00;7.28;;;13.70;99.90;;;;;;4969771;28;20034;-75
2022/09/23 10:11:00;;;;;;;;;;;13.70;99.90;;;;;;4973774;28;20023;-74
2022/09/23 10:13:29;;;;;;;6.22;5.63;;;13.90;99.90;;;;;;4987721;28;19918;-73
2022/09/23 10:15:59;;;;;;;9.95;6.22;;;13.90;99.90;;;;;;4969703;28;20026;-74
2022/09/23 10:18:30;;;;;;;9.90;6.90;;;13.90;99.90;;;;;;4972891;28;20093;-74
2022/09/23 10:21:11;;;;;;;7.75;5.68;;;14.00;99.90;;;;;;4973193;28;20097;-75
2022/09/23 10:23:53;;;;;;;8.07;5.45;;;14.00;99.90;;;;;;4955329;28;20113;-74
2022/09/23 10:26:32;;;;;;;9.90;5.38;;;14.10;99.90;;;;;;4973484;28;20502;-73
2022/09/23 10:29:23;;;;;;;11.27;6.20;;;14.20;99.90;;;;;;4962130;28;20026;-74
2022/09/23 10:32:08;;;;;;;9.63;6.10;;;14.30;99.90;;;;;;4968820;28;20055;-74
2022/09/23 10:34:33;;;;;;;7.40;5.45;;;14.50;99.90;;;;;;4965837;28;20057;-74
2022/09/23 10:37:18;;;;;;;7.00;5.80;;;14.50;99.90;;;;;;4967298;28;20026;-74
2022/09/23 10:48:34;;;;;;;12.98;5.35;;;14.70;99.90;;;;;;4971302;28;20502;-75
2022/09/23 10:51:09;;;;;;;9.15;5.25;;;14.70;99.90;;;;;;4959118;28;20501;-73
2022/09/23 10:54:05;;;;;;;9.55;5.15;;;14.70;99.90;;;;;;4956405;28;20043;-75
2022/09/23 10:57:36;;;;;;;6.68;4.60;;;14.80;99.90;;;;;;4953871;28;20383;-75
2022/09/23 11:00:22;;;;;;;7.05;4.97;;;14.80;99.90;;;;;;4966667;28;20020;-74
2022/09/23 11:03:12;;;;;;;8.32;4.05;;;14.90;99.90;;;;;;4956634;28;20034;-74
2022/09/23 11:05:59;;;;;;;7.05;4.30;;;14.90;99.90;;;;;;4972819;28;20034;-75
2022/09/23 11:08:54;;;;;;;10.18;4.35;;;15.00;99.90;;;;;;4971605;28;20092;-75
2022/09/23 11:12:01;;;;;;;10.02;5.10;;;15.10;99.90;;;;;;4971708;28;20035;-75
2022/09/23 11:15:08;;;;;;;7.13;4.43;;;15.10;99.90;;;;;;4969916;28;20395;-75
2022/09/23 11:18:11;;;;;;;6.32;4.07;;;15.20;99.90;;;;;;4972956;28;20027;-76
2022/09/23 11:21:13;;;;;;;6.90;5.22;;;15.30;99.90;;;;;;4971803;28;20562;-74
2022/09/23 11:24:19;;;;;;;8.18;4.97;;;15.40;99.90;;;;;;4987878;28;20151;-76
2022/09/23 11:27:17;;;;;;;6.82;4.68;;;15.40;99.90;;;;;;4972703;28;20027;-75
2022/09/23 11:29:46;;;;;;;6.18;4.30;;;15.50;99.90;;;;;;4972732;28;20080;-74
2022/09/23 11:32:30;;;;;;;7.72;4.57;;;15.50;99.90;;;;;;4972636;28;20023;-74
2022/09/23 11:35:24;;;;;;;9.02;4.65;;;15.50;99.90;;;;;;4971914;28;20030;-72
2022/09/23 11:38:09;;;;;;;6.93;4.85;;;15.60;99.90;;;;;;4957840;28;20125;-74
2022/09/23 11:40:53;;;;;;;7.00;4.10;;;15.70;99.90;;;;;;4972391;28;20042;-74
2022/09/23 11:43:24;;;;;;;7.15;3.55;;;15.80;99.90;;;;;;4972441;28;20027;-74
2022/09/23 11:46:26;;;;;;;6.05;3.10;;;15.90;99.90;;;;;;4972496;28;20038;-74
2022/09/23 11:49:17;;;;;;;6.57;3.55;;;16.00;99.90;;;;;;4971112;28;20031;-74
2022/09/23 11:52:24;;;;;;;5.55;3.13;;;16.10;99.90;;;;;;4965555;28;20027;-75
2022/09/23 11:54:58;;;;;;;5.60;2.83;;;16.20;99.90;;;;;;4968914;28;20438;-74
2022/09/23 11:57:52;;;;;;;7.10;3.80;;;16.20;99.90;;;;;;4971947;28;20039;-73
2022/09/23 12:00:33;;;;;;;5.95;3.47;;;16.30;99.90;;;;;;4975818;28;20106;-74
2022/09/23 12:02:59;;;;;;;14.38;5.18;;;16.30;99.80;;;;;;4969676;28;20027;-74
2022/09/23 12:05:40;;;;;;;8.60;3.50;;;16.40;99.70;;;;;;4975366;28;20023;-75
2022/09/23 12:08:27;;;;;;;5.45;3.22;;;16.50;99.90;;;;;;4975889;28;20031;-76
2022/09/23 12:11:18;;;;;;;4.90;3.30;;;16.50;99.90;;;;;;4967349;28;20031;-75
2022/09/23 12:13:52;;;;;;;4.72;3.17;;;16.50;99.80;;;;;;5009969;28;20114;-75
2022/09/23 12:17:12;;;;;;;8.73;3.15;;;16.60;99.80;;;;;;4995176;28;20018;-74
2022/09/23 12:19:38;;;;;;;4.65;3.22;;;16.60;99.70;;;;;;4953770;29;20035;-75
2022/09/23 12:22:25;;;;;;;8.75;3.13;;;16.70;99.50;;;;;;4968943;28;20081;-74
2022/09/23 12:25:16;;;;;;;5.82;3.72;;;16.70;99.40;;;;;;4983626;28;20081;-74
2022/09/23 12:27:54;;;;;;;5.28;3.08;;;16.70;99.20;;;;;;4954853;28;20388;-75
2022/09/23 12:30:21;;;;;;;4.70;3.13;;;16.80;99.10;;;;;;4974938;28;20027;-75
2022/09/23 12:32:47;;;;;;;4.82;2.88;;;16.80;99.00;;;;;;4975272;28;20038;-74
2022/09/23 12:35:36;;;;;;;5.00;2.58;;;16.90;99.00;;;;;;4969395;28;20029;-74
2022/09/23 12:38:13;;;;;;;4.95;3.35;;;17.00;98.60;;;;;;4970297;28;20081;-74
2022/09/23 12:40:55;;;;;;;5.50;3.03;;;17.10;98.10;;;;;;4966097;28;20507;-75
2022/09/23 12:43:29;;;;;;;5.30;3.08;;;17.10;97.90;;;;;;4974059;28;20031;-75
2022/09/23 12:46:26;;;;;;;5.82;3.20;;;17.10;97.80;;;;;;4976020;28;20403;-74
2022/09/23 12:48:56;;;;;;;6.32;3.63;;;17.10;97.70;;;;;;4968892;28;20638;-73
2022/09/23 12:51:23;;;;;;;5.47;3.00;;;17.10;97.70;;;;;;4975789;28;20020;-75
2022/09/23 12:54:22;;;;;;;5.57;2.97;;;17.20;97.60;;;;;;4970088;28;20066;-74
2022/09/23 12:56:54;;;;;;;6.32;2.80;;;17.20;97.70;;;;;;4940228;28;20041;-75
2022/09/23 13:00:12;;;;;;;4.60;3.38;;;17.30;97.60;;;;;;4975369;28;20022;-75
2022/09/23 13:02:42;;;;;;;6.10;2.55;;;17.30;97.40;;;;;;4974702;28;20084;-74
2022/09/23 13:08:19;;;;;;;5.82;3.50;;;17.30;96.80;;;;;;4958404;28;20034;-75
2022/09/23 13:10:54;;;;;;;5.50;3.22;;;17.30;96.50;;;;;;4974985;28;20042;-74
2022/09/23 13:13:37;;;;;;;4.90;2.75;;;17.30;96.20;;;;;;4974278;28;20030;-75
2022/09/23 13:16:21;;;;;;;6.38;2.65;;;17.40;96.40;;;;;;4976144;28;20454;-75
2022/09/23 13:18:54;;;;;;;6.13;2.80;;;17.40;96.40;;;;;;4975961;28;20022;-75
2022/09/23 13:21:42;;;;;;;5.22;2.90;;;17.40;96.30;;;;;;4990900;28;20037;-75
2022/09/23 13:24:23;;;;;;;6.38;2.50;;;17.50;96.00;;;;;;4975951;28;20030;-75
2022/09/23 13:26:52;;;;;;;8.55;5.88;;;17.70;95.60;;;;;;4975972;28;20109;-75
2022/09/23 13:29:24;;;;;;;4.13;2.55;;;17.70;95.40;;;;;;4975714;28;20015;-75
2022/09/23 13:31:51;;;;;;;5.30;2.80;;;17.70;95.10;;;;;;4990271;28;20369;-74
2022/09/23 13:34:21;;;;;;;3.58;2.10;;;17.80;94.90;;;;;;4974915;28;20031;-76
2022/09/23 13:36:47;;;;;;;4.28;2.53;;;17.80;95.00;;;;;;4990188;28;20109;-75
2022/09/23 13:39:27;;;;;;;9.05;2.70;;;17.90;94.70;;;;;;4990129;28;20395;-75
2022/09/23 13:42:00;;;;;;;5.20;2.75;;;18.00;94.60;;;;;;4974989;28;20038;-76
2022/09/23 13:44:27;;;;;;;2.78;2.33;;;18.00;94.50;;;;;;4975344;28;20031;-76
2022/09/23 13:46:59;;;;;;;6.10;3.13;;;18.10;94.40;;;;;;4975280;28;20367;-76
2022/09/23 13:49:28;;;;;;;6.18;2.53;;;18.10;94.00;;;;;;4990257;28;20136;-76